Time;durP1;ratioP1;P1;durP2;ratioP2;P2;SDS_P1;SDS_P2;PMS_P1;PMS_P2;Temp;Humidity;BMP_temperature;BMP_pressure;BME280_temperature;BME280_humidity;BME280_pressure;Samples;Min_cycle;Max_cycle;Signal;HPM_P1;HPM_P2
2022/10/22 00:01:33;;;;;;;;;2.00;1.00;;;;;17.11;63.88;100600.56;5031227;28;45442;-81
2022/10/22 00:03:59;;;;;;;;;2.33;1.00;;;;;17.11;63.87;100600.56;5042375;28;45600;-81
2022/10/22 00:06:31;;;;;;;;;2.00;1.00;;;;;17.03;63.91;100588.44;5022163;28;45797;-82
2022/10/22 00:08:56;;;;;;;;;2.00;2.00;;;;;17.05;64.19;100602.53;5014457;28;45512;-82
2022/10/22 00:11:22;;;;;;;;;2.00;2.00;;;;;17.04;64.05;100608.78;5026485;28;45425;-82
2022/10/22 00:13:48;;;;;;;;;1.00;1.00;;;;;16.98;64.28;100592.13;5014713;28;47235;-81
2022/10/22 00:16:13;;;;;;;;;1.00;1.00;;;;;16.99;64.46;100603.63;5012157;28;45829;-82
2022/10/22 00:18:44;;;;;;;;;1.00;1.00;;;;;17.02;64.48;100608.84;5008744;28;45463;-82
2022/10/22 00:21:11;;;;;;;;;2.00;1.67;;;;;17.08;64.42;100621.97;5019943;28;45554;-82
2022/10/22 00:23:40;;;;;;;;;2.00;2.00;;;;;17.05;64.32;100622.03;5021599;28;47374;-81
2022/10/22 00:26:08;;;;;;;;;3.00;2.00;;;;;17.06;64.29;100637.09;5014463;28;45392;-82
2022/10/22 00:28:40;;;;;;;;;1.33;1.00;;;;;17.10;64.40;100648.50;5031450;28;45367;-81
2022/10/22 00:31:06;;;;;;;;;1.33;1.33;;;;;17.03;64.45;100626.56;5003139;28;45621;-81
2022/10/22 00:33:32;;;;;;;;;1.67;1.00;;;;;17.07;64.67;100644.13;5038941;28;45460;-82
2022/10/22 00:36:00;;;;;;;;;3.00;1.33;;;;;17.08;64.35;100645.91;5018225;28;45249;-82
2022/10/22 00:38:26;;;;;;;;;2.00;1.00;;;;;16.99;64.53;100630.22;5014001;28;45346;-82
2022/10/22 00:40:59;;;;;;;;;3.33;3.33;;;;;16.99;64.77;100635.53;5009516;28;45574;-82
2022/10/22 00:43:26;;;;;;;;;2.67;2.00;;;;;16.99;64.29;100638.19;5027306;28;47157;-82
2022/10/22 00:45:52;;;;;;;;;1.33;1.33;;;;;17.09;64.85;100657.41;5023690;28;45536;-82
2022/10/22 00:48:29;;;;;;;;;1.00;1.00;;;;;16.97;64.43;100642.69;5014330;28;45898;-82
2022/10/22 00:51:16;;;;;;;;;2.00;2.00;;;;;17.06;64.50;100666.34;5024642;28;45440;-82
2022/10/22 00:53:48;;;;;;;;;2.00;2.00;;;;;16.96;64.42;100643.63;5001198;28;47114;-82
2022/10/22 00:56:14;;;;;;;;;2.00;2.00;;;;;17.04;64.63;100667.31;5012472;28;45383;-82
2022/10/22 00:58:46;;;;;;;;;0.33;0.00;;;;;16.96;64.75;100651.59;5005544;28;45479;-82
2022/10/22 01:01:25;;;;;;;;;2.00;1.00;;;;;16.96;64.54;100656.91;5018286;28;45201;-83
2022/10/22 01:03:54;;;;;;;;;6.67;3.00;;;;;16.90;64.64;100670.41;5010688;28;46356;-82
2022/10/22 01:06:32;;;;;;;;;2.00;2.00;;;;;16.87;64.39;100663.41;5007083;28;45493;-82
2022/10/22 01:09:07;;;;;;;;;2.00;1.00;;;;;16.96;64.50;100689.69;5007933;28;45512;-82
2022/10/22 01:11:58;;;;;;;;;2.00;0.67;;;;;16.95;64.84;100698.59;5032687;28;45490;-81
2022/10/22 01:14:41;;;;;;;;;3.00;3.00;;;;;16.96;64.72;100710.09;5022871;28;45595;-82
2022/10/22 01:17:19;;;;;;;;;1.67;0.00;;;;;16.86;64.58;100698.88;5053373;28;45351;-82
2022/10/22 01:20:08;;;;;;;;;2.00;1.00;;;;;16.94;65.23;100710.13;5025686;28;45386;-83
2022/10/22 01:22:56;;;;;;;;;2.00;2.00;;;;;16.92;64.57;100708.44;5011315;28;45471;-82
2022/10/22 01:25:33;;;;;;;;;1.00;1.00;;;;;16.93;64.85;100728.81;5016945;28;47107;-82
2022/10/22 01:28:05;;;;;;;;;1.00;0.67;;;;;16.93;64.67;100724.38;5040218;28;45398;-82
2022/10/22 01:30:33;;;;;;;;;2.67;1.00;;;;;16.87;64.73;100716.59;5045132;28;45324;-82
2022/10/22 01:33:05;;;;;;;;;1.00;1.00;;;;;16.89;64.75;100724.50;5043737;28;45552;-82
2022/10/22 01:35:36;;;;;;;;;2.67;2.67;;;;;16.86;64.53;100711.28;5040698;28;46246;-82
2022/10/22 01:38:07;;;;;;;;;1.00;1.00;;;;;16.91;64.56;100727.97;5016837;28;45261;-82
2022/10/22 01:40:39;;;;;;;;;2.00;1.67;;;;;16.93;64.75;100726.16;5028850;28;45427;-82
2022/10/22 01:43:06;;;;;;;;;2.00;1.00;;;;;16.87;64.88;100699.75;5003584;28;45604;-82
2022/10/22 01:45:55;;;;;;;;;2.00;2.00;;;;;16.87;64.62;100711.25;5036672;28;46247;-82
2022/10/22 01:49:11;;;;;;;;;4.67;2.00;;;;;16.98;64.55;100733.06;5020621;28;45496;-82
2022/10/22 01:51:52;;;;;;;;;1.67;0.33;;;;;16.99;64.66;100723.31;4964464;28;45675;-81
2022/10/22 01:54:46;;;;;;;;;0.00;0.00;;;;;16.95;64.50;100706.56;4954126;28;45448;-82
2022/10/22 01:57:35;;;;;;;;;1.67;1.67;;;;;17.01;64.48;100720.59;4922132;28;46233;-82
2022/10/22 02:00:01;;;;;;;;;3.00;2.00;;;;;17.08;64.45;100727.47;4923949;28;45448;-82
2022/10/22 02:02:29;;;;;;;;;1.00;0.00;;;;;17.11;64.30;100722.06;4949864;28;46468;-82
2022/10/22 02:05:17;;;;;;;;;2.33;1.67;;;;;17.14;64.44;100727.28;4990519;28;45672;-82
2022/10/22 02:08:07;;;;;;;;;1.67;1.67;;;;;17.13;64.24;100726.44;4903320;28;47344;-82
2022/10/22 02:10:46;;;;;;;;;3.67;1.00;;;;;17.15;64.46;100727.22;4998751;28;45433;-82
2022/10/22 02:13:21;;;;;;;;;1.00;1.00;;;;;17.16;64.53;100721.00;4986912;28;45750;-82
2022/10/22 02:15:50;;;;;;;;;1.67;1.67;;;;;17.15;64.08;100726.38;4984182;28;45449;-82
2022/10/22 02:18:19;;;;;;;;;1.67;1.00;;;;;17.23;64.19;100736.78;4974170;28;47305;-82
2022/10/22 02:20:45;;;;;;;;;2.00;0.00;;;;;17.17;64.15;100724.53;4980468;28;46843;-82
2022/10/22 02:23:11;;;;;;;;;1.00;1.00;;;;;17.19;63.88;100728.03;4984568;28;45532;-82
2022/10/22 02:25:43;;;;;;;;;4.00;2.00;;;;;17.16;64.25;100733.41;4962866;28;45650;-81
2022/10/22 02:28:33;;;;;;;;;1.00;1.00;;;;;17.19;64.20;100738.66;4968741;28;46424;-82
2022/10/22 02:31:07;;;;;;;;;2.00;2.00;;;;;17.15;64.09;100729.88;4995967;28;45235;-82
2022/10/22 02:33:38;;;;;;;;;1.00;0.33;;;;;17.08;64.48;100723.03;4965248;28;45451;-82
2022/10/22 02:36:05;;;;;;;;;3.00;2.00;;;;;17.04;64.10;100726.69;4997105;28;45611;-82
2022/10/22 02:38:33;;;;;;;;;3.00;3.00;;;;;17.04;64.54;100732.00;4992663;28;45341;-82
2022/10/22 02:40:59;;;;;;;;;3.00;3.00;;;;;17.06;64.28;100743.47;4973100;28;46195;-81
2022/10/22 02:43:24;;;;;;;;;2.00;1.00;;;;;16.94;64.33;100722.56;4970109;28;45322;-82
2022/10/22 02:45:50;;;;;;;;;0.00;0.00;;;;;16.95;64.60;100735.84;4962378;28;45493;-81
2022/10/22 02:48:16;;;;;;;;;2.00;2.00;;;;;16.97;64.65;100752.63;4994764;28;46327;-82
2022/10/22 02:50:41;;;;;;;;;1.00;1.00;;;;;16.98;64.64;100761.47;4987505;28;45379;-82
2022/10/22 02:53:07;;;;;;;;;1.00;1.00;;;;;16.91;64.88;100757.25;4971263;28;45777;-82
2022/10/22 02:55:35;;;;;;;;;5.67;1.67;;;;;16.95;64.89;100769.53;5009610;28;45392;-82
2022/10/22 02:58:00;;;;;;;;;2.67;2.00;;;;;16.96;65.13;100772.13;4982793;28;48003;-81
2022/10/22 03:00:26;;;;;;;;;1.00;1.00;;;;;17.01;65.18;100781.78;5000869;28;45484;-81
2022/10/22 03:02:51;;;;;;;;;1.67;1.67;;;;;17.00;65.40;100783.56;5009061;28;45854;-81
2022/10/22 03:05:17;;;;;;;;;1.00;1.00;;;;;16.92;64.94;100757.22;4994084;28;45944;-82
2022/10/22 03:07:42;;;;;;;;;2.00;1.00;;;;;17.04;65.00;100771.03;5004738;28;48285;-82
2022/10/22 03:10:08;;;;;;;;;2.67;2.67;;;;;17.11;65.13;100786.78;5016050;28;45357;-82
2022/10/22 03:12:34;;;;;;;;;1.67;1.67;;;;;17.10;65.29;100785.03;5006281;28;45356;-82
2022/10/22 03:14:59;;;;;;;;;1.00;1.00;;;;;17.09;65.38;100788.59;5007125;28;45604;-81
2022/10/22 03:17:25;;;;;;;;;1.67;1.67;;;;;17.08;64.94;100788.63;5008446;28;46089;-82
2022/10/22 03:19:53;;;;;;;;;2.00;2.00;;;;;17.01;65.28;100779.13;5005430;28;45203;-83
2022/10/22 03:22:24;;;;;;;;;2.33;1.00;;;;;17.06;65.40;100799.34;4992410;28;45508;-82
2022/10/22 03:24:53;;;;;;;;;3.00;2.00;;;;;17.05;65.14;100807.34;5007685;28;46601;-82
2022/10/22 03:27:21;;;;;;;;;2.00;2.00;;;;;16.94;65.39;100783.72;5008177;28;45594;-82
2022/10/22 03:29:49;;;;;;;;;3.00;3.00;;;;;16.98;65.16;100801.38;5016631;28;45523;-82
2022/10/22 03:32:14;;;;;;;;;2.00;2.00;;;;;17.02;65.53;100807.44;5018006;28;45309;-82
2022/10/22 03:34:40;;;;;;;;;0.33;0.33;;;;;16.99;65.79;100805.75;5003597;28;45496;-82
2022/10/22 03:37:05;;;;;;;;;2.00;1.00;;;;;16.98;65.41;100804.03;5025952;28;46838;-81
2022/10/22 03:39:33;;;;;;;;;4.00;2.67;;;;;16.94;65.88;100797.91;5009580;28;46026;-82
2022/10/22 03:42:00;;;;;;;;;3.33;1.33;;;;;17.01;65.52;100814.56;4990692;28;45458;-82
2022/10/22 03:44:26;;;;;;;;;2.67;2.67;;;;;16.87;65.54;100799.00;5012259;28;45356;-82
2022/10/22 03:46:52;;;;;;;;;2.00;2.00;;;;;16.87;66.18;100806.13;5003912;28;46171;-81
2022/10/22 03:49:17;;;;;;;;;2.00;1.33;;;;;16.88;65.76;100810.50;5018632;28;45420;-82
2022/10/22 03:51:43;;;;;;;;;1.33;1.33;;;;;16.86;65.83;100823.84;5013544;28;45337;-81
2022/10/22 03:54:09;;;;;;;;;3.00;2.00;;;;;16.87;65.97;100819.44;5010256;28;45498;-82
2022/10/22 03:56:35;;;;;;;;;3.00;0.33;;;;;16.80;66.35;100817.84;5008246;28;46067;-82
2022/10/22 03:59:03;;;;;;;;;2.00;2.00;;;;;16.81;66.34;100820.44;5016975;28;45467;-81
2022/10/22 04:01:30;;;;;;;;;1.00;1.00;;;;;16.82;66.45;100818.69;5006958;28;45522;-82
2022/10/22 04:03:56;;;;;;;;;4.33;2.67;;;;;16.79;66.55;100824.09;5012424;28;45525;-82
2022/10/22 04:06:22;;;;;;;;;5.33;4.33;;;;;16.77;66.48;100826.78;5018924;28;46156;-81
2022/10/22 04:08:47;;;;;;;;;2.00;2.00;;;;;16.73;66.54;100828.63;5016974;28;45361;-82
2022/10/22 04:11:14;;;;;;;;;3.00;3.00;;;;;16.78;66.78;100839.16;5017057;28;45341;-81
2022/10/22 04:13:40;;;;;;;;;2.00;1.00;;;;;16.67;66.39;100822.59;4998004;28;45466;-82
2022/10/22 04:16:11;;;;;;;;;3.00;3.00;;;;;16.76;66.90;100848.94;5003184;28;46958;-81
2022/10/22 04:18:37;;;;;;;;;1.00;1.00;;;;;16.67;67.05;100836.75;5016282;28;45508;-82
2022/10/22 04:21:04;;;;;;;;;1.33;1.33;;;;;16.78;67.04;100848.91;4999705;28;45628;-81
2022/10/22 04:23:29;;;;;;;;;5.00;2.00;;;;;16.80;67.15;100855.06;5005238;28;45353;-82
2022/10/22 04:26:00;;;;;;;;;3.67;0.33;;;;;16.83;67.49;100854.97;5006510;28;46322;-82
2022/10/22 04:28:25;;;;;;;;;3.33;1.67;;;;;16.84;66.96;100848.72;4997968;28;45468;-82
2022/10/22 04:30:51;;;;;;;;;1.67;1.67;;;;;16.82;66.91;100847.94;5000556;28;44797;-81
2022/10/22 04:33:16;;;;;;;;;3.00;3.00;;;;;16.82;66.81;100846.13;4996077;28;45535;-82
2022/10/22 04:35:42;;;;;;;;;1.67;1.67;;;;;16.85;67.35;100846.03;5018802;28;47183;-82
2022/10/22 04:38:07;;;;;;;;;1.00;0.67;;;;;16.79;67.06;100830.28;5021433;28;45431;-82
2022/10/22 04:40:33;;;;;;;;;1.00;1.00;;;;;16.92;67.17;100849.38;5018477;28;45250;-82
2022/10/22 04:42:58;;;;;;;;;1.00;1.00;;;;;16.88;66.97;100855.72;5012660;28;45421;-80
2022/10/22 04:45:23;;;;;;;;;2.33;2.00;;;;;16.87;67.07;100862.84;5011359;28;47335;-82
2022/10/22 04:47:49;;;;;;;;;4.67;3.67;;;;;16.93;66.92;100873.28;5012206;28;45383;-81
2022/10/22 04:50:15;;;;;;;;;1.33;1.33;;;;;16.95;66.93;100865.28;5019776;28;45500;-81
2022/10/22 04:52:40;;;;;;;;;1.00;1.00;;;;;16.98;67.06;100887.34;5006076;28;45485;-81
2022/10/22 04:55:06;;;;;;;;;5.00;5.00;;;;;16.96;66.71;100877.66;5012857;28;47506;-82
2022/10/22 04:57:32;;;;;;;;;3.00;1.33;;;;;16.98;66.94;100882.03;5016781;28;45532;-81
2022/10/22 04:59:57;;;;;;;;;2.00;2.00;;;;;16.98;66.77;100889.13;5012651;28;45482;-82
2022/10/22 05:02:23;;;;;;;;;2.33;1.33;;;;;16.90;67.00;100873.38;5012482;28;45631;-82
2022/10/22 05:04:48;;;;;;;;;4.33;4.00;;;;;16.92;67.05;100881.31;5008584;28;46863;-81
2022/10/22 05:07:14;;;;;;;;;3.00;1.00;;;;;16.92;67.19;100883.97;5004747;28;45511;-81
2022/10/22 05:09:39;;;;;;;;;1.00;1.00;;;;;16.92;67.00;100878.63;5022040;28;45616;-81
2022/10/22 05:12:05;;;;;;;;;3.00;1.67;;;;;16.95;67.21;100884.78;5006240;28;45389;-81
2022/10/22 05:14:31;;;;;;;;;3.67;2.00;;;;;16.95;66.99;100889.22;5013662;28;46071;-81
2022/10/22 05:16:57;;;;;;;;;5.67;4.33;;;;;17.01;67.54;100894.38;5005104;28;45463;-82
2022/10/22 05:19:27;;;;;;;;;3.00;2.00;;;;;17.02;67.12;100889.91;5015673;28;45415;-79
2022/10/22 05:21:56;;;;;;;;;4.00;2.33;;;;;17.02;67.23;100889.91;5016577;28;45496;-81
2022/10/22 05:24:22;;;;;;;;;2.33;2.00;;;;;17.00;67.28;100889.97;5006632;28;45471;-81
2022/10/22 05:26:51;;;;;;;;;6.33;4.00;;;;;16.95;67.28;100875.94;5004946;28;45267;-81
2022/10/22 05:29:17;;;;;;;;;1.67;1.67;;;;;17.01;67.19;100891.69;5016080;28;45284;-82
2022/10/22 05:31:43;;;;;;;;;4.00;2.33;;;;;17.11;67.16;100903.84;5008539;28;45400;-81
2022/10/22 05:34:08;;;;;;;;;3.00;2.00;;;;;17.02;67.26;100885.44;5003878;28;46666;-83
2022/10/22 05:36:34;;;;;;;;;1.67;0.33;;;;;17.11;66.81;100882.56;5016899;28;45370;-81
2022/10/22 05:38:59;;;;;;;;;2.00;2.00;;;;;17.07;67.23;100888.84;5011487;28;45928;-82
2022/10/22 05:41:26;;;;;;;;;2.67;1.33;;;;;17.13;67.21;100895.78;5002871;28;45322;-82
2022/10/22 05:43:57;;;;;;;;;1.33;1.33;;;;;17.14;66.86;100897.56;5006929;28;47563;-81
2022/10/22 05:46:26;;;;;;;;;5.00;2.00;;;;;17.10;67.24;100880.78;5006403;28;45482;-82
2022/10/22 05:49:01;;;;;;;;;2.00;1.00;;;;;17.22;66.91;100898.22;5000323;28;45514;-81
2022/10/22 05:51:28;;;;;;;;;1.33;1.33;;;;;17.25;67.00;100903.44;5019548;28;45596;-82
2022/10/22 05:53:56;;;;;;;;;2.00;2.00;;;;;17.25;66.94;100897.25;5019459;28;46007;-81
2022/10/22 05:56:22;;;;;;;;;3.00;2.00;;;;;17.23;66.84;100897.28;5007738;28;45396;-82
2022/10/22 05:58:48;;;;;;;;;1.33;1.33;;;;;17.28;66.86;100906.00;5019240;28;45427;-81
2022/10/22 06:01:22;;;;;;;;;1.00;1.00;;;;;17.29;66.85;100912.19;5001605;28;45625;-82
2022/10/22 06:03:48;;;;;;;;;2.67;2.00;;;;;17.28;66.49;100908.66;5012718;28;45395;-83
2022/10/22 06:06:20;;;;;;;;;1.67;1.00;;;;;17.29;66.45;100920.19;5008917;28;45340;-82
2022/10/22 06:08:48;;;;;;;;;4.00;2.00;;;;;17.32;66.36;100913.00;5002450;28;45355;-82
2022/10/22 06:11:16;;;;;;;;;3.33;2.00;;;;;17.33;66.55;100919.19;5018478;28;45974;-82
2022/10/22 06:13:42;;;;;;;;;1.00;1.00;;;;;17.35;66.39;100920.88;5005058;28;46079;-81
2022/10/22 06:16:07;;;;;;;;;2.00;2.00;;;;;17.33;66.40;100911.19;5019254;28;45384;-82
2022/10/22 06:18:33;;;;;;;;;3.00;3.00;;;;;17.32;66.51;100917.41;5017456;28;45269;-81
2022/10/22 06:21:04;;;;;;;;;1.67;1.67;;;;;17.31;66.35;100915.69;5007497;28;45413;-81
2022/10/22 06:23:29;;;;;;;;;4.33;1.33;;;;;17.33;66.48;100930.69;5003315;28;47508;-82
2022/10/22 06:26:38;;;;;;;;;4.00;3.33;;;;;17.38;66.39;100939.44;5006676;28;45458;-87
2022/10/22 06:29:52;;;;;;;;;1.00;1.00;;;;;17.41;66.38;100944.66;4982993;28;45721;-86
2022/10/22 06:32:22;;;;;;;;;2.67;2.00;;;;;17.31;66.43;100927.19;4977603;28;45627;-84
2022/10/22 06:34:49;;;;;;;;;2.00;2.00;;;;;17.41;66.47;100935.81;4990235;28;45532;-83
2022/10/22 06:37:17;;;;;;;;;3.00;2.00;;;;;17.42;66.42;100943.72;5008772;28;45499;-84
2022/10/22 06:39:45;;;;;;;;;5.00;4.67;;;;;17.40;66.24;100939.34;5011501;28;45357;-84
2022/10/22 06:42:11;;;;;;;;;1.33;1.33;;;;;17.40;66.27;100947.34;5006217;28;45925;-83
2022/10/22 06:44:36;;;;;;;;;2.00;1.00;;;;;17.43;66.02;100957.94;5004652;28;48426;-85
2022/10/22 06:47:04;;;;;;;;;3.00;2.33;;;;;17.41;66.43;100965.09;5014148;28;45356;-85
2022/10/22 06:49:30;;;;;;;;;4.00;3.33;;;;;17.44;66.10;100964.13;5005181;28;45384;-82
2022/10/22 06:51:55;;;;;;;;;2.00;1.00;;;;;17.45;66.29;100958.72;4997962;28;45676;-84
2022/10/22 06:54:21;;;;;;;;;1.67;1.33;;;;;17.49;65.84;100965.72;5006447;28;46207;-83
2022/10/22 06:56:47;;;;;;;;;2.00;2.00;;;;;17.50;66.25;100971.91;5004133;28;45451;-83
2022/10/22 06:59:13;;;;;;;;;2.33;2.33;;;;;17.46;66.08;100963.16;5001125;28;45364;-84
2022/10/22 07:01:38;;;;;;;;;2.00;1.67;;;;;17.55;65.90;100988.63;5011604;28;45461;-82
2022/10/22 07:04:05;;;;;;;;;4.00;3.00;;;;;17.59;66.07;100985.00;5005802;28;46267;-83
2022/10/22 07:06:31;;;;;;;;;1.00;1.00;;;;;17.56;66.26;100977.97;5015583;28;45649;-83
2022/10/22 07:08:58;;;;;;;;;2.67;2.00;;;;;17.62;65.86;100984.88;5011095;28;45787;-83
2022/10/22 07:11:37;;;;;;;;;2.00;1.00;;;;;17.74;65.36;101004.94;5019410;28;45350;-83
2022/10/22 07:14:03;;;;;;;;;1.67;1.67;;;;;17.75;65.43;100998.69;5012820;28;46468;-83
2022/10/22 07:16:28;;;;;;;;;2.00;2.00;;;;;17.74;65.51;101010.28;5003789;28;45342;-83
2022/10/22 07:18:54;;;;;;;;;2.00;2.00;;;;;17.73;65.18;101012.06;5006661;28;45541;-82
2022/10/22 07:21:20;;;;;;;;;2.00;2.00;;;;;17.66;65.46;100999.84;5016884;28;45637;-83
2022/10/22 07:23:46;;;;;;;;;1.33;1.00;;;;;17.67;65.60;101009.59;5009533;28;45866;-83
2022/10/22 07:26:14;;;;;;;;;4.67;2.67;;;;;17.68;65.34;101021.13;4998295;28;45269;-83
2022/10/22 07:28:40;;;;;;;;;1.67;1.67;;;;;17.70;65.26;101013.97;5008509;28;45502;-83
2022/10/22 07:31:08;;;;;;;;;4.00;3.00;;;;;17.74;65.39;101024.47;4998887;28;45426;-82
2022/10/22 07:33:35;;;;;;;;;2.67;2.00;;;;;17.74;65.16;101019.13;5005766;28;45569;-82
2022/10/22 07:36:03;;;;;;;;;2.33;1.33;;;;;17.78;65.30;101023.47;5018362;28;45355;-84
2022/10/22 07:38:28;;;;;;;;;2.00;2.00;;;;;17.81;64.96;101028.72;5002970;28;45450;-81
2022/10/22 07:40:54;;;;;;;;;2.00;2.00;;;;;17.81;64.97;101028.72;4998494;28;45602;-81
2022/10/22 07:43:20;;;;;;;;;2.67;2.00;;;;;17.78;65.11;101036.78;5005615;28;46332;-83
2022/10/22 07:45:45;;;;;;;;;3.33;2.00;;;;;17.70;64.76;101033.47;5018350;28;45414;-83
2022/10/22 07:48:11;;;;;;;;;3.67;2.00;;;;;17.65;64.74;101046.03;5011631;28;45322;-82
2022/10/22 07:50:36;;;;;;;;;4.00;2.67;;;;;17.58;65.02;101045.31;5007972;28;45872;-82
2022/10/22 07:53:02;;;;;;;;;3.00;2.00;;;;;17.56;64.98;101043.63;5021999;28;45155;-82
2022/10/22 07:55:27;;;;;;;;;3.33;2.00;;;;;17.42;65.07;101034.22;5028954;28;44712;-82
2022/10/22 07:57:53;;;;;;;;;2.33;2.33;;;;;17.50;65.09;101055.31;5018914;28;45288;-82
2022/10/22 08:00:18;;;;;;;;;3.33;3.33;;;;;17.47;65.36;101049.22;5033338;28;44809;-82
2022/10/22 08:02:44;;;;;;;;;2.00;2.00;;;;;17.43;65.40;101048.44;4998228;28;47548;-83
2022/10/22 08:05:09;;;;;;;;;2.33;2.00;;;;;17.38;65.15;101045.03;5006631;28;45318;-82
2022/10/22 08:07:35;;;;;;;;;2.67;1.67;;;;;17.43;65.31;101059.06;5002405;28;45355;-82
2022/10/22 08:10:00;;;;;;;;;2.00;2.00;;;;;17.43;65.87;101056.41;5012510;28;45797;-82
2022/10/22 08:12:25;;;;;;;;;3.67;2.33;;;;;17.41;65.24;101052.91;5016379;28;45337;-82
2022/10/22 08:14:51;;;;;;;;;2.67;2.33;;;;;17.44;65.65;101059.94;5019870;28;45551;-82
2022/10/22 08:17:16;;;;;;;;;2.00;2.00;;;;;17.46;65.44;101050.13;5020982;28;45459;-82
2022/10/22 08:19:42;;;;;;;;;3.33;3.00;;;;;17.52;65.61;101064.13;5021622;28;45313;-82
2022/10/22 08:22:07;;;;;;;;;3.67;2.33;;;;;17.53;65.27;101055.22;5021130;28;45649;-82
2022/10/22 08:24:33;;;;;;;;;2.00;2.00;;;;;17.54;65.19;101053.47;5019245;28;46126;-81
2022/10/22 08:26:58;;;;;;;;;4.00;3.67;;;;;17.54;65.37;101059.66;5017062;28;45525;-82
2022/10/22 08:29:25;;;;;;;;;1.67;1.67;;;;;17.57;65.28;101064.03;5018779;28;45511;-82
2022/10/22 08:31:52;;;;;;;;;1.67;1.00;;;;;17.60;65.09;101054.16;5019744;28;47215;-81
2022/10/22 08:34:18;;;;;;;;;2.33;2.00;;;;;17.68;64.98;101053.06;5020789;28;45305;-82
2022/10/22 08:36:43;;;;;;;;;3.00;2.00;;;;;17.72;65.06;101054.72;5007608;28;45600;-82
2022/10/22 08:39:09;;;;;;;;;4.00;4.00;;;;;17.71;65.16;101039.66;5014045;28;45288;-82
2022/10/22 08:42:08;;;;;;;;;1.67;1.67;;;;;17.82;65.06;101061.56;5011545;28;47378;-82
2022/10/22 08:44:45;;;;;;;;;3.00;2.00;;;;;17.87;65.13;101061.44;5004828;28;45438;-82
2022/10/22 08:47:26;;;;;;;;;2.00;2.00;;;;;17.92;64.62;101060.38;5007263;28;45748;-85
2022/10/22 08:49:52;;;;;;;;;3.00;1.33;;;;;17.95;65.02;101056.75;5006002;28;45475;-86
2022/10/22 08:52:19;;;;;;;;;1.00;1.00;;;;;17.99;64.77;101056.63;5002166;28;48338;-86
2022/10/22 08:55:00;;;;;;;;;3.00;3.00;;;;;18.04;64.30;101059.13;5008692;28;45366;-84
2022/10/22 08:57:34;;;;;;;;;2.33;2.33;;;;;18.15;64.65;101067.72;5018575;28;45302;-84
2022/10/22 09:00:00;;;;;;;;;3.67;2.33;;;;;18.20;64.11;101065.78;5015929;28;45914;-85
2022/10/22 09:02:52;;;;;;;;;3.00;2.00;;;;;18.25;64.39;101065.63;5022653;28;47315;-91
2022/10/22 09:05:26;;;;;;;;;1.00;1.00;;;;;18.33;64.10;101071.59;5021580;28;45425;-89
2022/10/22 09:07:54;;;;;;;;;3.33;2.33;;;;;18.39;64.25;101079.41;5032712;28;45505;-94
2022/10/22 09:10:25;;;;;;;;;2.00;1.00;;;;;18.44;63.90;101074.81;5017680;28;44849;-89
2022/10/22 09:12:51;;;;;;;;;4.00;4.00;;;;;18.50;63.74;101081.75;5025375;28;47661;-92
2022/10/22 09:15:18;;;;;;;;;1.33;1.33;;;;;18.52;63.29;101077.22;5033381;28;44868;-90
2022/10/22 09:18:04;;;;;;;;;3.00;2.67;;;;;18.58;63.77;101076.16;5031557;28;45186;-88
2022/10/22 09:23:53;;;;;;;;;2.33;2.00;;;;;18.65;63.43;101070.59;5012467;28;45472;-93
2022/10/22 09:26:19;;;;;;;;;2.00;2.00;;;;;18.68;63.38;101074.94;5036826;28;44840;-90
2022/10/22 09:28:49;;;;;;;;;2.00;2.00;;;;;18.70;63.41;101070.44;5024419;28;45476;-90
2022/10/22 09:31:15;;;;;;;;;3.00;1.00;;;;;18.72;63.28;101073.94;5026278;28;44837;-90
2022/10/22 09:33:44;;;;;;;;;2.00;2.00;;;;;18.81;62.96;101073.66;5017256;28;46849;-89
2022/10/22 09:36:16;;;;;;;;;1.67;1.00;;;;;18.86;62.60;101078.84;5022596;28;45416;-88
2022/10/22 09:38:54;;;;;;;;;1.67;0.00;;;;;18.90;62.79;101072.50;5014647;28;45445;-89
2022/10/22 09:41:28;;;;;;;;;3.33;1.00;;;;;18.96;62.87;101061.63;5019035;28;45321;-89
2022/10/22 09:44:03;;;;;;;;;0.00;0.00;;;;;19.12;62.66;101068.19;5021964;28;47239;-89
2022/10/22 09:46:29;;;;;;;;;2.00;1.67;;;;;19.15;62.36;101056.53;5021775;28;45296;-90
2022/10/22 09:49:08;;;;;;;;;2.00;1.33;;;;;19.30;61.70;101065.78;5022432;28;45686;-90
2022/10/22 09:51:55;;;;;;;;;2.33;1.00;;;;;19.39;61.85;101063.69;5026897;28;45595;-88
2022/10/22 09:54:31;;;;;;;;;1.33;1.33;;;;;19.50;61.46;101055.28;5026000;28;48195;-89
2022/10/22 09:57:36;;;;;;;;;2.00;1.67;;;;;19.57;61.45;101048.81;5023832;28;45488;-90
2022/10/22 10:03:04;;;;;;;;;4.00;2.00;;;;;19.88;60.76;101046.84;5001020;28;45838;-94
2022/10/22 10:05:36;;;;;;;;;1.67;0.67;;;;;20.08;60.70;101054.13;5021767;28;46864;-93
2022/10/22 10:08:12;;;;;;;;;1.00;1.00;;;;;20.20;60.45;101057.16;5022602;28;45261;-93
2022/10/22 10:11:00;;;;;;;;;2.00;1.00;;;;;20.25;59.61;101049.84;5022316;28;45611;-85
2022/10/22 10:13:38;;;;;;;;;2.33;1.00;;;;;20.42;59.52;101059.00;5014638;28;45972;-88
2022/10/22 10:16:07;;;;;;;;;2.33;2.00;;;;;20.54;59.25;101061.22;5019426;28;46965;-90
2022/10/22 10:19:05;;;;;;;;;0.67;0.67;;;;;20.65;59.07;101060.78;5020237;28;45469;-92
2022/10/22 10:22:07;;;;;;;;;1.33;1.33;;;;;20.85;58.51;101066.22;4974523;28;45580;-88
2022/10/22 10:24:33;;;;;;;;;4.00;2.67;;;;;21.04;57.91;101062.78;5042552;28;45466;-93
2022/10/22 10:27:12;;;;;;;;;1.00;1.00;;;;;21.21;57.60;101064.72;5028759;28;48051;-91
2022/10/22 10:30:29;;;;;;;;;1.00;1.00;;;;;21.35;57.45;101057.81;5025297;28;45812;-92
2022/10/22 10:33:19;;;;;;;;;1.00;1.00;;;;;21.51;57.25;101054.50;4969681;28;45406;-93
2022/10/22 10:36:04;;;;;;;;;1.33;1.33;;;;;21.59;56.85;101066.59;5022075;28;45653;-90
2022/10/22 10:41:54;;;;;;;;;1.67;1.67;;;;;21.88;55.97;101069.78;5006223;28;45245;-87
2022/10/22 10:44:40;;;;;;;;;0.67;0.33;;;;;22.00;55.94;101063.88;5015125;28;44950;-86
2022/10/22 10:47:47;;;;;;;;;1.33;1.00;;;;;22.19;55.44;101061.25;5021590;28;45874;-87
2022/10/22 10:50:20;;;;;;;;;2.00;0.33;;;;;22.44;55.27;101068.13;5030616;28;47250;-93
2022/10/22 10:53:14;;;;;;;;;1.67;1.00;;;;;22.72;54.50;101067.66;5018237;28;44802;-90
2022/10/22 10:56:08;;;;;;;;;5.33;4.67;;;;;23.17;54.18;101062.75;5024136;28;45433;-89
2022/10/22 10:58:37;;;;;;;;;26.67;25.33;;;;;23.86;53.95;101060.03;5029692;28;45271;-86
2022/10/22 11:01:30;;;;;;;;;3.00;2.00;;;;;25.42;53.22;101068.19;5014169;28;48146;-92
2022/10/22 11:04:23;;;;;;;;;16.33;13.33;;;;;27.56;50.09;101066.03;5015418;28;45758;-91
2022/10/22 11:07:00;;;;;;;;;4.67;3.00;;;;;29.68;47.05;101053.97;5000872;28;45411;-87
2022/10/22 11:10:13;;;;;;;;;0.67;0.00;;;;;31.61;43.56;101076.00;5006668;28;45577;-91
2022/10/22 11:16:39;;;;;;;;;2.00;2.00;;;;;34.36;36.97;101064.13;4931185;28;45396;-94
2022/10/22 11:19:24;;;;;;;;;;;;;;;;;;;;;
2022/10/22 11:22:04;;;;;;;;;0.67;0.33;;;;;33.06;34.54;101065.75;5004067;28;71435;-90
2022/10/22 11:25:25;;;;;;;;;1.33;1.00;;;;;32.50;35.64;101050.88;5003360;28;47354;-89
2022/10/22 11:28:33;;;;;;;;;1.33;1.00;;;;;33.29;35.44;101060.84;5006288;28;45797;-93
2022/10/22 11:31:20;;;;;;;;;0.33;0.33;;;;;34.57;33.28;101052.09;4990340;28;45802;-94
2022/10/22 11:33:52;;;;;;;;;0.33;0.33;;;;;35.20;32.76;101052.00;5014234;28;45574;-90
2022/10/22 11:36:33;;;;;;;;;1.00;1.00;;;;;35.58;31.49;101041.72;5012799;28;47216;-90
2022/10/22 11:39:02;;;;;;;;;0.67;0.00;;;;;35.55;30.62;101050.19;5011263;28;45317;-92
2022/10/22 11:41:59;;;;;;;;;0.00;0.00;;;;;35.81;30.64;101052.97;5019771;28;45463;-90
2022/10/22 11:44:59;;;;;;;;;1.67;1.67;;;;;36.53;29.77;101053.44;4974349;28;45764;-91
2022/10/22 11:50:59;;;;;;;;;0.00;0.00;;;;;36.23;28.58;101049.41;5020613;28;45432;-88
2022/10/22 11:53:29;;;;;;;;;0.00;0.00;;;;;35.92;27.96;101049.06;5012448;28;45801;-90
2022/10/22 11:56:02;;;;;;;;;1.00;1.00;;;;;34.97;28.26;101040.66;4986269;28;45570;-86
2022/10/22 11:58:33;;;;;;;;;1.00;1.00;;;;;33.73;28.92;101036.63;4990736;28;46744;-88
2022/10/22 12:01:08;;;;;;;;;0.33;0.33;;;;;32.89;30.16;101040.00;5004663;28;45383;-89
2022/10/22 12:03:36;;;;;;;;;0.33;0.33;;;;;32.16;30.90;101036.69;5004088;28;45336;-91
2022/10/22 12:06:19;;;;;;;;;1.67;1.00;;;;;31.65;31.61;101038.50;5020769;28;45702;-90